• Join FlightAware (Why Join?)
  • Login
  • US Flag 
01:58AM EST


 

Airport Tracker/Info


-or-


 

Live Flight TrackerFlight Track Log ✈ N6448 ✈ 11-Jun-2012 ✈ KSPI - KBMI

Flight Track Log - Related Links

Times and Time Zones

All times are in EDT time to prevent confusion due to time zone crossing. See the N6448 flight status page for this flight to view local times or setup timezone preferences in your user account.

Time Position Orientation Groundspeed Altitude Reporting Facility
EDT Latitude Longitude Course Direction KTS MPH feet Rate Location/Type
06:43PM 39.9542 -89.5292 41° Northeast  Level FlightAware Approximate
06:44PM 39.9787 -89.5011 43° Northeast  Level FlightAware Approximate
06:45PM 40.0028 -89.4721 43° Northeast  Level FlightAware Approximate
06:46PM 40.0269 -89.4432 43° Northeast  Level FlightAware Approximate
06:47PM 40.0509 -89.4142 43° Northeast  Level FlightAware Approximate
06:48PM 40.0750 -89.3852 43° Northeast  Level FlightAware Approximate
06:49PM 40.0991 -89.3562 43° Northeast  Level FlightAware Approximate
06:50PM 40.1231 -89.3272 57° Northeast  Level FlightAware Approximate
06:51PM 40.1407 -89.2920 42° Northeast  Level FlightAware Approximate
06:52PM 40.1652 -89.2635 42° Northeast  Level FlightAware Approximate
06:53PM 40.1897 -89.2351 42° Northeast  Level FlightAware Approximate
06:54PM 40.2141 -89.2066 42° Northeast  Level FlightAware Approximate
06:55PM 40.2386 -89.1781 42° Northeast  Level FlightAware Approximate
06:56PM 40.2630 -89.1496 42° Northeast  Level FlightAware Approximate
06:57PM 40.2874 -89.1210 42° Northeast  Level FlightAware Approximate
06:58PM 40.3119 -89.0924 42° Northeast  Level FlightAware Approximate
06:59PM 40.3362 -89.0638 40° Northeast  Level FlightAware Approximate
07:00PM 40.3614 -89.0363 42° Northeast  Level FlightAware Approximate
07:01PM 40.3856 -89.0074 42° Northeast  Level FlightAware Approximate
07:02PM 40.4097 -88.9784 43° Northeast  Level FlightAware Approximate
07:03PM 40.4338 -88.9493 30° Northeast  Level FlightAware Approximate
07:04PM 40.4621 -88.9275 78° East  Level Estimated
07:05PM 40.4667 -88.9000 311° West  Level FlightAware Approximate
07:06PM 40.4880 -88.9326 131° Southeast  Level Estimated
07:07PM 40.4667 -88.9000 311° West  Level FlightAware Approximate
07:08PM 40.4880 -88.9326 131° Southeast  Level Estimated
07:09PM 40.4667 -88.9000 311° West  Level FlightAware Approximate
07:10PM 40.4880 -88.9326 131° Southeast  Level Estimated
07:11PM 40.4667 -88.9000 311° West  Level FlightAware Approximate
07:12PM 40.4880 -88.9326 131° Southeast  Level Estimated
07:13PM 40.4667 -88.9000 311° West  Level FlightAware Approximate
07:14PM 40.4880 -88.9326 131° Southeast  Level Estimated
07:15PM 40.4667 -88.9000 311° West  Level FlightAware Approximate
07:16PM 40.4880 -88.9326 131° Southeast  Level Estimated
07:17PM 40.4667 -88.9000 311° West  Level FlightAware Approximate
07:18PM 40.4880 -88.9326 131° Southeast  Level Estimated
07:19PM 40.4667 -88.9000 311° West  Level FlightAware Approximate
07:20PM 40.4880 -88.9326 311° West  Level Estimated